sensor_id;sensor_type;location;lat;lon;timestamp;pressure;altitude;pressure_sealevel;temperature;humidity
46955;BME280;32708;51.212;6.788;2023-08-06T00:01:06;99814.72;;;25.08;81.63
46955;BME280;32708;51.212;6.788;2023-08-06T00:03:32;99814.34;;;25.22;79.12
46955;BME280;32708;51.212;6.788;2023-08-06T00:05:58;99822.00;;;24.40;82.55
46955;BME280;32708;51.212;6.788;2023-08-06T00:08:24;99807.81;;;24.96;80.61
46955;BME280;32708;51.212;6.788;2023-08-06T00:10:50;99803.78;;;25.13;79.36
46955;BME280;32708;51.212;6.788;2023-08-06T00:13:16;99810.69;;;24.92;80.24
46955;BME280;32708;51.212;6.788;2023-08-06T00:15:42;99802.72;;;24.46;81.72
46955;BME280;32708;51.212;6.788;2023-08-06T00:18:09;99791.16;;;25.09;79.38
46955;BME280;32708;51.212;6.788;2023-08-06T00:20:35;99792.66;;;24.81;80.20
46955;BME280;32708;51.212;6.788;2023-08-06T00:23:04;99783.50;;;25.25;78.08
46955;BME280;32708;51.212;6.788;2023-08-06T00:25:30;99782.34;;;24.94;79.67
46955;BME280;32708;51.212;6.788;2023-08-06T00:27:56;99781.94;;;25.24;78.31
46955;BME280;32708;51.212;6.788;2023-08-06T00:30:22;99785.69;;;25.18;78.76
46955;BME280;32708;51.212;6.788;2023-08-06T00:32:50;99793.75;;;24.99;80.09
46955;BME280;32708;51.212;6.788;2023-08-06T00:35:16;99792.22;;;24.82;80.70
46955;BME280;32708;51.212;6.788;2023-08-06T00:37:42;99793.94;;;24.92;81.13
46955;BME280;32708;51.212;6.788;2023-08-06T00:40:09;99791.06;;;24.96;80.97
46955;BME280;32708;51.212;6.788;2023-08-06T00:42:35;99799.19;;;24.90;81.44
46955;BME280;32708;51.212;6.788;2023-08-06T00:45:02;99803.94;;;24.61;82.91
46955;BME280;32708;51.212;6.788;2023-08-06T00:47:29;99793.53;;;24.94;80.96
46955;BME280;32708;51.212;6.788;2023-08-06T00:49:55;99793.50;;;25.10;80.19
46955;BME280;32708;51.212;6.788;2023-08-06T00:52:22;99794.13;;;25.31;79.11
46955;BME280;32708;51.212;6.788;2023-08-06T00:54:49;99794.03;;;25.05;80.71
46955;BME280;32708;51.212;6.788;2023-08-06T00:57:15;99800.28;;;24.48;82.75
46955;BME280;32708;51.212;6.788;2023-08-06T00:59:42;99788.88;;;24.58;81.81
46955;BME280;32708;51.212;6.788;2023-08-06T01:02:08;99799.22;;;24.09;84.98
46955;BME280;32708;51.212;6.788;2023-08-06T01:04:35;99793.06;;;24.95;80.61
46955;BME280;32708;51.212;6.788;2023-08-06T01:09:57;99782.91;;;24.73;81.09
46955;BME280;32708;51.212;6.788;2023-08-06T01:13:10;99779.59;;;25.23;79.57
46955;BME280;32708;51.212;6.788;2023-08-06T01:15:49;99771.84;;;24.98;80.98
46955;BME280;32708;51.212;6.788;2023-08-06T01:18:16;99776.47;;;24.59;81.14
46955;BME280;32708;51.212;6.788;2023-08-06T01:20:43;99775.91;;;24.81;81.71
46955;BME280;32708;51.212;6.788;2023-08-06T01:23:09;99769.66;;;24.60;81.08
46955;BME280;32708;51.212;6.788;2023-08-06T01:26:17;99777.78;;;24.22;84.02
46955;BME280;32708;51.212;6.788;2023-08-06T01:31:50;99776.56;;;24.72;81.83
46955;BME280;32708;51.212;6.788;2023-08-06T01:34:22;99773.59;;;24.63;81.89
46955;BME280;32708;51.212;6.788;2023-08-06T01:36:50;99768.53;;;24.74;81.01
46955;BME280;32708;51.212;6.788;2023-08-06T01:39:17;99773.50;;;24.01;85.27
46955;BME280;32708;51.212;6.788;2023-08-06T01:41:49;99774.88;;;24.75;81.64
46955;BME280;32708;51.212;6.788;2023-08-06T01:44:16;99768.25;;;24.68;82.59
46955;BME280;32708;51.212;6.788;2023-08-06T01:46:43;99761.22;;;24.48;82.78
46955;BME280;32708;51.212;6.788;2023-08-06T01:49:09;99756.94;;;24.27;83.71
46955;BME280;32708;51.212;6.788;2023-08-06T01:51:35;99759.84;;;24.85;82.11
46955;BME280;32708;51.212;6.788;2023-08-06T01:54:01;99764.91;;;25.19;80.75
46955;BME280;32708;51.212;6.788;2023-08-06T01:56:27;99758.00;;;24.94;81.72
46955;BME280;32708;51.212;6.788;2023-08-06T01:58:53;99761.50;;;24.82;82.17
46955;BME280;32708;51.212;6.788;2023-08-06T02:01:20;99750.50;;;24.46;82.91
46955;BME280;32708;51.212;6.788;2023-08-06T02:03:46;99745.03;;;24.88;81.81
46955;BME280;32708;51.212;6.788;2023-08-06T02:06:12;99747.16;;;24.96;80.83
46955;BME280;32708;51.212;6.788;2023-08-06T02:08:38;99743.84;;;24.56;82.13
46955;BME280;32708;51.212;6.788;2023-08-06T02:11:05;99754.81;;;24.80;81.54
46955;BME280;32708;51.212;6.788;2023-08-06T02:13:31;99753.50;;;25.13;80.46
46955;BME280;32708;51.212;6.788;2023-08-06T02:15:57;99747.50;;;25.15;80.05
46955;BME280;32708;51.212;6.788;2023-08-06T02:18:24;99747.41;;;25.31;79.12
46955;BME280;32708;51.212;6.788;2023-08-06T02:20:58;99742.78;;;25.12;79.75
46955;BME280;32708;51.212;6.788;2023-08-06T02:23:26;99742.28;;;25.30;79.25
46955;BME280;32708;51.212;6.788;2023-08-06T02:26:04;99748.59;;;25.59;78.34
46955;BME280;32708;51.212;6.788;2023-08-06T02:28:31;99738.63;;;25.71;78.31
46955;BME280;32708;51.212;6.788;2023-08-06T02:30:58;99734.25;;;25.70;77.10
46955;BME280;32708;51.212;6.788;2023-08-06T02:33:24;99742.44;;;25.51;78.05
46955;BME280;32708;51.212;6.788;2023-08-06T02:35:51;99732.03;;;25.65;77.48
46955;BME280;32708;51.212;6.788;2023-08-06T02:38:17;99730.63;;;25.73;77.83
46955;BME280;32708;51.212;6.788;2023-08-06T02:40:47;99732.75;;;25.94;76.48
46955;BME280;32708;51.212;6.788;2023-08-06T02:43:13;99735.53;;;25.94;77.34
46955;BME280;32708;51.212;6.788;2023-08-06T02:45:40;99735.28;;;25.50;78.77
46955;BME280;32708;51.212;6.788;2023-08-06T02:48:07;99731.41;;;25.86;76.57
46955;BME280;32708;51.212;6.788;2023-08-06T02:50:40;99731.13;;;25.55;76.87
46955;BME280;32708;51.212;6.788;2023-08-06T02:53:08;99726.09;;;25.37;78.83
46955;BME280;32708;51.212;6.788;2023-08-06T02:55:35;99724.75;;;25.55;77.85
46955;BME280;32708;51.212;6.788;2023-08-06T02:58:05;99727.16;;;25.27;78.90
46955;BME280;32708;51.212;6.788;2023-08-06T03:00:35;99718.75;;;24.07;83.70
46955;BME280;32708;51.212;6.788;2023-08-06T03:03:03;99725.84;;;25.03;80.64
46955;BME280;32708;51.212;6.788;2023-08-06T03:05:54;99712.34;;;25.68;79.29
46955;BME280;32708;51.212;6.788;2023-08-06T03:08:28;99704.97;;;25.62;78.40
46955;BME280;32708;51.212;6.788;2023-08-06T03:10:55;99712.66;;;25.32;78.40
46955;BME280;32708;51.212;6.788;2023-08-06T03:13:21;99708.53;;;25.37;79.12
46955;BME280;32708;51.212;6.788;2023-08-06T03:15:59;99701.91;;;25.18;79.28
46955;BME280;32708;51.212;6.788;2023-08-06T03:18:26;99705.53;;;25.02;80.30
46955;BME280;32708;51.212;6.788;2023-08-06T03:20:53;99711.94;;;23.76;86.38
46955;BME280;32708;51.212;6.788;2023-08-06T03:23:20;99705.41;;;24.48;83.68
46955;BME280;32708;51.212;6.788;2023-08-06T03:25:47;99702.31;;;25.84;78.80
46955;BME280;32708;51.212;6.788;2023-08-06T03:28:14;99702.84;;;25.66;77.75
46955;BME280;32708;51.212;6.788;2023-08-06T03:30:41;99701.66;;;25.12;79.66
46955;BME280;32708;51.212;6.788;2023-08-06T03:33:09;99704.13;;;25.10;79.85
46955;BME280;32708;51.212;6.788;2023-08-06T03:35:35;99702.88;;;25.11;80.21
46955;BME280;32708;51.212;6.788;2023-08-06T03:38:02;99694.84;;;25.13;80.16
46955;BME280;32708;51.212;6.788;2023-08-06T03:40:28;99697.69;;;24.68;80.26
46955;BME280;32708;51.212;6.788;2023-08-06T03:42:56;99692.31;;;25.70;78.28
46955;BME280;32708;51.212;6.788;2023-08-06T03:45:22;99699.47;;;25.33;79.27
46955;BME280;32708;51.212;6.788;2023-08-06T03:47:49;99697.44;;;24.91;79.98
46955;BME280;32708;51.212;6.788;2023-08-06T03:50:16;99704.50;;;24.67;82.82
46955;BME280;32708;51.212;6.788;2023-08-06T03:52:42;99695.22;;;24.99;79.99
46955;BME280;32708;51.212;6.788;2023-08-06T03:55:08;99701.50;;;23.44;86.69
46955;BME280;32708;51.212;6.788;2023-08-06T03:57:34;99691.56;;;24.44;83.14
46955;BME280;32708;51.212;6.788;2023-08-06T04:00:02;99698.00;;;25.15;80.18
46955;BME280;32708;51.212;6.788;2023-08-06T04:02:41;99691.19;;;25.42;79.11
46955;BME280;32708;51.212;6.788;2023-08-06T04:05:08;99689.81;;;25.21;79.43
46955;BME280;32708;51.212;6.788;2023-08-06T04:07:35;99687.97;;;25.56;77.83
46955;BME280;32708;51.212;6.788;2023-08-06T04:10:04;99687.53;;;25.83;77.16
46955;BME280;32708;51.212;6.788;2023-08-06T04:12:32;99689.69;;;25.79;76.45
46955;BME280;32708;51.212;6.788;2023-08-06T04:15:03;99686.38;;;25.42;78.39
46955;BME280;32708;51.212;6.788;2023-08-06T04:17:32;99696.41;;;24.85;79.71
46955;BME280;32708;51.212;6.788;2023-08-06T04:19:59;99700.19;;;24.33;82.73
46955;BME280;32708;51.212;6.788;2023-08-06T04:22:25;99698.97;;;23.49;87.34
46955;BME280;32708;51.212;6.788;2023-08-06T04:24:51;99696.22;;;24.92;81.38
46955;BME280;32708;51.212;6.788;2023-08-06T04:27:19;99694.34;;;25.44;78.67
46955;BME280;32708;51.212;6.788;2023-08-06T04:29:47;99696.31;;;24.60;83.07
46955;BME280;32708;51.212;6.788;2023-08-06T04:32:14;99697.44;;;24.91;80.49
46955;BME280;32708;51.212;6.788;2023-08-06T04:34:46;99706.13;;;24.19;84.89
46955;BME280;32708;51.212;6.788;2023-08-06T04:37:12;99703.22;;;24.84;80.84
46955;BME280;32708;51.212;6.788;2023-08-06T04:39:38;99688.19;;;24.94;80.23
46955;BME280;32708;51.212;6.788;2023-08-06T04:42:05;99704.72;;;24.27;83.88
46955;BME280;32708;51.212;6.788;2023-08-06T04:44:31;99694.78;;;24.71;81.93
46955;BME280;32708;51.212;6.788;2023-08-06T04:46:58;99706.03;;;24.39;83.54
46955;BME280;32708;51.212;6.788;2023-08-06T04:49:25;99693.81;;;24.78;82.11
46955;BME280;32708;51.212;6.788;2023-08-06T04:51:51;99704.75;;;24.43;82.79
46955;BME280;32708;51.212;6.788;2023-08-06T04:54:17;99696.81;;;24.71;82.08
46955;BME280;32708;51.212;6.788;2023-08-06T04:56:43;99696.06;;;24.83;82.26
46955;BME280;32708;51.212;6.788;2023-08-06T04:59:10;99701.78;;;24.34;84.08
46955;BME280;32708;51.212;6.788;2023-08-06T05:01:36;99715.00;;;24.47;84.85
46955;BME280;32708;51.212;6.788;2023-08-06T05:04:02;99704.44;;;24.54;84.33
46955;BME280;32708;51.212;6.788;2023-08-06T05:06:28;99705.81;;;24.91;82.35
46955;BME280;32708;51.212;6.788;2023-08-06T05:08:54;99694.28;;;25.73;79.02
46955;BME280;32708;51.212;6.788;2023-08-06T05:11:21;99693.22;;;25.54;77.64
46955;BME280;32708;51.212;6.788;2023-08-06T05:13:47;99700.16;;;25.49;78.68
46955;BME280;32708;51.212;6.788;2023-08-06T05:16:13;99700.19;;;26.00;77.78
46955;BME280;32708;51.212;6.788;2023-08-06T05:18:39;99712.53;;;25.36;80.09
46955;BME280;32708;51.212;6.788;2023-08-06T05:21:07;99711.78;;;26.12;77.37
46955;BME280;32708;51.212;6.788;2023-08-06T05:23:33;99712.56;;;26.25;76.55
46955;BME280;32708;51.212;6.788;2023-08-06T05:25:59;99708.66;;;26.10;77.46
46955;BME280;32708;51.212;6.788;2023-08-06T05:28:25;99710.94;;;26.49;76.44
46955;BME280;32708;51.212;6.788;2023-08-06T05:30:51;99708.44;;;26.86;74.83
46955;BME280;32708;51.212;6.788;2023-08-06T05:33:18;99713.41;;;27.26;72.98
46955;BME280;32708;51.212;6.788;2023-08-06T05:35:44;99715.66;;;26.27;76.78
46955;BME280;32708;51.212;6.788;2023-08-06T05:38:10;99711.16;;;25.82;79.75
46955;BME280;32708;51.212;6.788;2023-08-06T05:40:36;99714.09;;;26.39;77.85
46955;BME280;32708;51.212;6.788;2023-08-06T05:43:02;99723.66;;;25.90;78.75
46955;BME280;32708;51.212;6.788;2023-08-06T05:45:29;99730.09;;;25.49;79.94
46955;BME280;32708;51.212;6.788;2023-08-06T05:47:55;99726.28;;;25.30;81.49
46955;BME280;32708;51.212;6.788;2023-08-06T05:50:23;99737.66;;;24.32;84.83
46955;BME280;32708;51.212;6.788;2023-08-06T05:52:50;99731.50;;;25.95;79.17
46955;BME280;32708;51.212;6.788;2023-08-06T05:55:16;99731.69;;;25.63;80.29
46955;BME280;32708;51.212;6.788;2023-08-06T05:57:42;99728.47;;;25.90;79.56
46955;BME280;32708;51.212;6.788;2023-08-06T06:00:09;99725.63;;;26.28;77.19
46955;BME280;32708;51.212;6.788;2023-08-06T06:02:41;99720.88;;;26.50;75.89
46955;BME280;32708;51.212;6.788;2023-08-06T06:05:07;99719.47;;;27.02;74.61
46955;BME280;32708;51.212;6.788;2023-08-06T06:07:34;99729.94;;;26.67;75.54
46955;BME280;32708;51.212;6.788;2023-08-06T06:10:00;99731.38;;;26.94;72.23
46955;BME280;32708;51.212;6.788;2023-08-06T06:12:26;99747.53;;;25.40;80.87
46955;BME280;32708;51.212;6.788;2023-08-06T06:14:52;99740.66;;;26.09;76.83
46955;BME280;32708;51.212;6.788;2023-08-06T06:17:18;99743.41;;;25.45;79.35
46955;BME280;32708;51.212;6.788;2023-08-06T06:19:44;99740.84;;;25.63;79.79
46955;BME280;32708;51.212;6.788;2023-08-06T06:22:10;99745.34;;;26.24;76.50
46955;BME280;32708;51.212;6.788;2023-08-06T06:24:36;99739.81;;;26.59;74.26
46955;BME280;32708;51.212;6.788;2023-08-06T06:27:03;99745.81;;;25.97;76.90
46955;BME280;32708;51.212;6.788;2023-08-06T06:29:29;99746.00;;;27.10;72.73
46955;BME280;32708;51.212;6.788;2023-08-06T06:31:55;99753.50;;;26.31;75.36
46955;BME280;32708;51.212;6.788;2023-08-06T06:34:22;99753.31;;;26.73;73.28
46955;BME280;32708;51.212;6.788;2023-08-06T06:36:48;99755.75;;;26.71;73.94
46955;BME280;32708;51.212;6.788;2023-08-06T06:39:15;99764.69;;;26.31;72.83
46955;BME280;32708;51.212;6.788;2023-08-06T06:41:41;99756.91;;;26.74;72.38
46955;BME280;32708;51.212;6.788;2023-08-06T06:44:17;99755.13;;;27.24;71.68
46955;BME280;32708;51.212;6.788;2023-08-06T06:46:45;99755.22;;;26.98;72.34
46955;BME280;32708;51.212;6.788;2023-08-06T06:49:11;99758.47;;;26.97;72.38
46955;BME280;32708;51.212;6.788;2023-08-06T06:51:37;99749.81;;;26.82;72.03
46955;BME280;32708;51.212;6.788;2023-08-06T06:54:04;99762.78;;;26.54;75.35
46955;BME280;32708;51.212;6.788;2023-08-06T06:56:30;99758.97;;;27.17;72.49
46955;BME280;32708;51.212;6.788;2023-08-06T06:58:56;99753.97;;;27.65;70.50
46955;BME280;32708;51.212;6.788;2023-08-06T07:01:22;99760.03;;;26.98;73.20
46955;BME280;32708;51.212;6.788;2023-08-06T07:03:48;99760.56;;;27.49;70.43
46955;BME280;32708;51.212;6.788;2023-08-06T07:06:14;99759.19;;;27.23;71.90
46955;BME280;32708;51.212;6.788;2023-08-06T07:08:41;99763.50;;;27.02;72.57
46955;BME280;32708;51.212;6.788;2023-08-06T07:11:07;99761.19;;;26.66;73.31
46955;BME280;32708;51.212;6.788;2023-08-06T07:13:34;99758.19;;;27.38;69.56
46955;BME280;32708;51.212;6.788;2023-08-06T07:16:00;99759.66;;;26.86;71.74
46955;BME280;32708;51.212;6.788;2023-08-06T07:18:27;99756.84;;;27.52;70.15
46955;BME280;32708;51.212;6.788;2023-08-06T07:20:55;99767.56;;;27.45;70.41
46955;BME280;32708;51.212;6.788;2023-08-06T07:23:24;99760.44;;;26.52;73.31
46955;BME280;32708;51.212;6.788;2023-08-06T07:25:50;99767.53;;;28.47;67.43
46955;BME280;32708;51.212;6.788;2023-08-06T07:28:17;99765.41;;;28.97;64.24
46955;BME280;32708;51.212;6.788;2023-08-06T07:30:45;99754.59;;;28.40;64.98
46955;BME280;32708;51.212;6.788;2023-08-06T07:33:12;99760.63;;;28.30;64.99
46955;BME280;32708;51.212;6.788;2023-08-06T07:35:38;99764.16;;;27.50;68.12
46955;BME280;32708;51.212;6.788;2023-08-06T07:38:04;99768.97;;;28.02;66.08
46955;BME280;32708;51.212;6.788;2023-08-06T07:40:30;99773.44;;;27.37;68.71
46955;BME280;32708;51.212;6.788;2023-08-06T07:42:56;99778.28;;;28.30;66.68
46955;BME280;32708;51.212;6.788;2023-08-06T07:45:22;99781.94;;;28.18;66.70
46955;BME280;32708;51.212;6.788;2023-08-06T07:47:48;99764.91;;;28.62;64.86
46955;BME280;32708;51.212;6.788;2023-08-06T07:50:15;99778.41;;;28.94;64.25
46955;BME280;32708;51.212;6.788;2023-08-06T07:52:41;99768.97;;;28.79;65.45
46955;BME280;32708;51.212;6.788;2023-08-06T07:55:07;99775.75;;;27.92;67.45
46955;BME280;32708;51.212;6.788;2023-08-06T07:57:33;99776.13;;;28.43;66.71
46955;BME280;32708;51.212;6.788;2023-08-06T08:00:01;99780.00;;;28.37;66.80
46955;BME280;32708;51.212;6.788;2023-08-06T08:02:27;99779.44;;;28.11;67.71
46955;BME280;32708;51.212;6.788;2023-08-06T08:04:53;99784.16;;;27.83;67.97
46955;BME280;32708;51.212;6.788;2023-08-06T08:07:20;99782.72;;;28.18;65.04
46955;BME280;32708;51.212;6.788;2023-08-06T08:09:46;99785.03;;;27.27;69.28
46955;BME280;32708;51.212;6.788;2023-08-06T08:12:14;99795.78;;;27.28;69.01
46955;BME280;32708;51.212;6.788;2023-08-06T08:14:40;99794.91;;;28.15;68.43
46955;BME280;32708;51.212;6.788;2023-08-06T08:17:07;99795.69;;;27.63;68.68
46955;BME280;32708;51.212;6.788;2023-08-06T08:19:33;99793.81;;;27.82;69.40
46955;BME280;32708;51.212;6.788;2023-08-06T08:21:59;99795.50;;;28.10;67.04
46955;BME280;32708;51.212;6.788;2023-08-06T08:24:25;99801.78;;;28.23;68.33
46955;BME280;32708;51.212;6.788;2023-08-06T08:26:53;99795.53;;;28.29;66.93
46955;BME280;32708;51.212;6.788;2023-08-06T08:29:20;99803.31;;;27.84;68.71
46955;BME280;32708;51.212;6.788;2023-08-06T08:31:47;99797.59;;;27.88;67.91
46955;BME280;32708;51.212;6.788;2023-08-06T08:34:19;99801.44;;;28.21;66.16
46955;BME280;32708;51.212;6.788;2023-08-06T08:36:45;99800.16;;;28.44;65.57
46955;BME280;32708;51.212;6.788;2023-08-06T08:39:15;99801.44;;;28.21;66.00
46955;BME280;32708;51.212;6.788;2023-08-06T08:41:42;99790.06;;;28.65;66.02
46955;BME280;32708;51.212;6.788;2023-08-06T08:44:10;99796.88;;;28.64;64.94
46955;BME280;32708;51.212;6.788;2023-08-06T08:46:40;99804.91;;;29.21;63.27
46955;BME280;32708;51.212;6.788;2023-08-06T08:49:06;99795.97;;;29.41;62.39
46955;BME280;32708;51.212;6.788;2023-08-06T08:51:34;99786.00;;;30.33;59.83
46955;BME280;32708;51.212;6.788;2023-08-06T08:54:04;99804.78;;;29.15;61.20
46955;BME280;32708;51.212;6.788;2023-08-06T08:56:31;99793.34;;;28.82;60.76
46955;BME280;32708;51.212;6.788;2023-08-06T08:58:58;99804.63;;;29.10;61.30
46955;BME280;32708;51.212;6.788;2023-08-06T09:01:26;99799.56;;;29.41;60.13
46955;BME280;32708;51.212;6.788;2023-08-06T09:03:54;99801.91;;;29.61;60.04
46955;BME280;32708;51.212;6.788;2023-08-06T09:06:26;99798.81;;;28.27;62.95
46955;BME280;32708;51.212;6.788;2023-08-06T09:09:12;99811.75;;;29.66;58.60
46955;BME280;32708;51.212;6.788;2023-08-06T09:11:44;99807.25;;;29.31;60.46
46955;BME280;32708;51.212;6.788;2023-08-06T09:14:11;99812.34;;;29.70;58.78
46955;BME280;32708;51.212;6.788;2023-08-06T09:16:38;99821.94;;;29.26;59.63
46955;BME280;32708;51.212;6.788;2023-08-06T09:19:09;99800.72;;;30.28;56.36
46955;BME280;32708;51.212;6.788;2023-08-06T09:21:40;99809.41;;;30.06;56.88
46955;BME280;32708;51.212;6.788;2023-08-06T09:24:11;99808.25;;;30.55;55.20
46955;BME280;32708;51.212;6.788;2023-08-06T09:26:43;99815.34;;;29.66;57.91
46955;BME280;32708;51.212;6.788;2023-08-06T09:29:11;99817.88;;;29.00;59.75
46955;BME280;32708;51.212;6.788;2023-08-06T09:31:48;99841.06;;;26.92;73.07
46955;BME280;32708;51.212;6.788;2023-08-06T09:34:17;99872.59;;;24.58;93.73
46955;BME280;32708;51.212;6.788;2023-08-06T09:36:52;99884.81;;;24.28;100.00
46955;BME280;32708;51.212;6.788;2023-08-06T09:39:27;99877.19;;;24.49;100.00
46955;BME280;32708;51.212;6.788;2023-08-06T09:42:01;99885.56;;;24.97;99.02
46955;BME280;32708;51.212;6.788;2023-08-06T09:44:30;99883.47;;;24.36;99.61
46955;BME280;32708;51.212;6.788;2023-08-06T09:47:00;99896.91;;;23.66;100.00
46955;BME280;32708;51.212;6.788;2023-08-06T09:49:46;99897.56;;;23.73;100.00
46955;BME280;32708;51.212;6.788;2023-08-06T09:52:14;99899.22;;;24.07;99.68
46955;BME280;32708;51.212;6.788;2023-08-06T09:54:43;99892.66;;;23.97;98.55
46955;BME280;32708;51.212;6.788;2023-08-06T09:57:14;99897.81;;;23.99;98.88
46955;BME280;32708;51.212;6.788;2023-08-06T09:59:42;99901.00;;;24.37;96.74
46955;BME280;32708;51.212;6.788;2023-08-06T10:02:13;99898.75;;;24.28;96.83
46955;BME280;32708;51.212;6.788;2023-08-06T10:04:43;99899.66;;;23.46;98.74
46955;BME280;32708;51.212;6.788;2023-08-06T10:07:13;99906.63;;;23.97;96.43
46955;BME280;32708;51.212;6.788;2023-08-06T10:09:40;99903.66;;;23.45;97.19
46955;BME280;32708;51.212;6.788;2023-08-06T10:12:06;99885.19;;;24.30;93.16
46955;BME280;32708;51.212;6.788;2023-08-06T10:14:36;99903.69;;;23.84;96.68
46955;BME280;32708;51.212;6.788;2023-08-06T10:17:05;99907.28;;;23.22;98.49
46955;BME280;32708;51.212;6.788;2023-08-06T10:19:33;99904.88;;;23.20;99.49
46955;BME280;32708;51.212;6.788;2023-08-06T10:22:16;99916.78;;;23.87;96.81
46955;BME280;32708;51.212;6.788;2023-08-06T10:24:52;99916.94;;;23.14;99.04
46955;BME280;32708;51.212;6.788;2023-08-06T10:27:30;99930.06;;;22.90;99.03
46955;BME280;32708;51.212;6.788;2023-08-06T10:30:29;99918.69;;;23.04;99.41
46955;BME280;32708;51.212;6.788;2023-08-06T10:33:02;99923.66;;;23.40;97.58
46955;BME280;32708;51.212;6.788;2023-08-06T10:35:38;99933.59;;;23.17;98.91
46955;BME280;32708;51.212;6.788;2023-08-06T10:38:12;99939.09;;;22.70;100.00
46955;BME280;32708;51.212;6.788;2023-08-06T10:40:41;99944.56;;;22.20;100.00
46955;BME280;32708;51.212;6.788;2023-08-06T10:43:31;99936.69;;;22.72;99.56
46955;BME280;32708;51.212;6.788;2023-08-06T10:46:00;99950.34;;;23.14;97.89
46955;BME280;32708;51.212;6.788;2023-08-06T10:48:42;99947.72;;;23.30;97.07
46955;BME280;32708;51.212;6.788;2023-08-06T10:51:13;99953.13;;;22.36;100.00
46955;BME280;32708;51.212;6.788;2023-08-06T10:53:46;99956.09;;;22.49;99.73
46955;BME280;32708;51.212;6.788;2023-08-06T10:56:19;99959.63;;;22.80;97.63
46955;BME280;32708;51.212;6.788;2023-08-06T10:58:46;99970.94;;;22.39;99.79
46955;BME280;32708;51.212;6.788;2023-08-06T11:01:13;99965.00;;;22.94;97.20
46955;BME280;32708;51.212;6.788;2023-08-06T11:03:42;99971.38;;;23.18;96.25
46955;BME280;32708;51.212;6.788;2023-08-06T11:06:10;99980.28;;;22.21;100.00
46955;BME280;32708;51.212;6.788;2023-08-06T11:08:42;99976.50;;;22.39;99.81
46955;BME280;32708;51.212;6.788;2023-08-06T11:11:15;99966.22;;;22.63;98.81
46955;BME280;32708;51.212;6.788;2023-08-06T11:13:44;99981.63;;;22.44;99.67
46955;BME280;32708;51.212;6.788;2023-08-06T11:16:19;99976.69;;;23.32;97.20
46955;BME280;32708;51.212;6.788;2023-08-06T11:18:46;99975.47;;;22.87;97.96
46955;BME280;32708;51.212;6.788;2023-08-06T11:21:13;99974.38;;;23.74;95.46
46955;BME280;32708;51.212;6.788;2023-08-06T11:23:40;99971.38;;;24.25;93.96
46955;BME280;32708;51.212;6.788;2023-08-06T11:26:08;99980.81;;;23.48;96.19
46955;BME280;32708;51.212;6.788;2023-08-06T11:28:37;99991.88;;;22.50;100.00
46955;BME280;32708;51.212;6.788;2023-08-06T11:31:06;99992.28;;;22.76;99.68
46955;BME280;32708;51.212;6.788;2023-08-06T11:33:32;99991.94;;;22.74;99.53
46955;BME280;32708;51.212;6.788;2023-08-06T11:36:09;100006.84;;;22.57;100.00
46955;BME280;32708;51.212;6.788;2023-08-06T11:38:36;99996.41;;;22.64;98.06
46955;BME280;32708;51.212;6.788;2023-08-06T11:41:02;99998.81;;;22.93;96.90
46955;BME280;32708;51.212;6.788;2023-08-06T11:43:31;100009.22;;;22.89;97.91
46955;BME280;32708;51.212;6.788;2023-08-06T11:45:57;100003.09;;;22.43;98.83
46955;BME280;32708;51.212;6.788;2023-08-06T11:48:25;100010.84;;;22.25;100.00
46955;BME280;32708;51.212;6.788;2023-08-06T11:50:55;100006.25;;;22.72;99.56
46955;BME280;32708;51.212;6.788;2023-08-06T11:53:27;100003.78;;;23.32;96.53
46955;BME280;32708;51.212;6.788;2023-08-06T11:56:16;100009.88;;;23.23;96.97
46955;BME280;32708;51.212;6.788;2023-08-06T11:58:48;100020.44;;;22.82;98.29
46955;BME280;32708;51.212;6.788;2023-08-06T12:01:15;100016.91;;;22.77;98.21
46955;BME280;32708;51.212;6.788;2023-08-06T12:03:41;100017.34;;;22.76;98.54
46955;BME280;32708;51.212;6.788;2023-08-06T12:06:08;100033.13;;;22.86;98.32
46955;BME280;32708;51.212;6.788;2023-08-06T12:08:34;100026.44;;;22.49;99.98
46955;BME280;32708;51.212;6.788;2023-08-06T12:11:00;100022.47;;;22.77;98.66
46955;BME280;32708;51.212;6.788;2023-08-06T12:13:27;100027.31;;;22.43;100.00
46955;BME280;32708;51.212;6.788;2023-08-06T12:15:54;100028.94;;;22.40;100.00
46955;BME280;32708;51.212;6.788;2023-08-06T12:18:24;100038.53;;;22.66;100.00
46955;BME280;32708;51.212;6.788;2023-08-06T12:20:50;100046.78;;;22.73;100.00
46955;BME280;32708;51.212;6.788;2023-08-06T12:23:17;100031.41;;;22.96;99.02
46955;BME280;32708;51.212;6.788;2023-08-06T12:25:43;100046.22;;;22.55;100.00
46955;BME280;32708;51.212;6.788;2023-08-06T12:28:11;100037.97;;;22.78;99.36
46955;BME280;32708;51.212;6.788;2023-08-06T12:30:38;100052.72;;;22.45;100.00
46955;BME280;32708;51.212;6.788;2023-08-06T12:33:07;100046.22;;;22.55;100.00
46955;BME280;32708;51.212;6.788;2023-08-06T12:35:35;100043.06;;;22.22;100.00
46955;BME280;32708;51.212;6.788;2023-08-06T12:38:03;100051.88;;;22.48;99.49
46955;BME280;32708;51.212;6.788;2023-08-06T12:40:29;100045.91;;;23.07;96.86
46955;BME280;32708;51.212;6.788;2023-08-06T12:42:55;100063.84;;;23.06;98.39
46955;BME280;32708;51.212;6.788;2023-08-06T12:45:26;100051.59;;;23.00;98.28
46955;BME280;32708;51.212;6.788;2023-08-06T12:48:52;100061.13;;;23.53;95.91
46955;BME280;32708;51.212;6.788;2023-08-06T12:51:25;100073.09;;;22.99;97.57
46955;BME280;32708;51.212;6.788;2023-08-06T12:53:54;100071.97;;;22.63;98.72
46955;BME280;32708;51.212;6.788;2023-08-06T12:56:20;100062.72;;;22.73;97.43
46955;BME280;32708;51.212;6.788;2023-08-06T12:58:54;100070.72;;;23.25;97.17
46955;BME280;32708;51.212;6.788;2023-08-06T13:01:20;100075.31;;;23.85;94.33
46955;BME280;32708;51.212;6.788;2023-08-06T13:03:46;100082.63;;;23.52;95.02
46955;BME280;32708;51.212;6.788;2023-08-06T13:06:13;100086.97;;;23.03;96.19
46955;BME280;32708;51.212;6.788;2023-08-06T13:08:39;100083.00;;;23.54;94.47
46955;BME280;32708;51.212;6.788;2023-08-06T13:11:06;100081.50;;;23.73;93.00